createdAt,value
2022-11-13T00:01:21.198Z,8.13
2022-11-13T00:04:07.600Z,9.10
2022-11-13T00:06:58.884Z,7.75
2022-11-13T00:09:45.780Z,8.43
2022-11-13T00:12:32.357Z,7.78
2022-11-13T00:15:18.939Z,6.65
2022-11-13T00:18:05.428Z,6.82
2022-11-13T00:20:51.859Z,6.55
2022-11-13T00:23:38.312Z,6.60
2022-11-13T00:26:27.521Z,6.70
2022-11-13T00:29:14.089Z,6.15
2022-11-13T00:32:00.632Z,6.15
2022-11-13T00:34:48.383Z,6.03
2022-11-13T00:37:35.089Z,6.63
2022-11-13T00:40:21.714Z,5.53
2022-11-13T00:43:07.962Z,5.63
2022-11-13T00:45:54.509Z,5.93
2022-11-13T00:48:40.757Z,5.85
2022-11-13T00:51:27.343Z,5.50
2022-11-13T00:54:14.169Z,5.40
2022-11-13T00:57:00.255Z,4.60
2022-11-13T00:59:46.793Z,5.78
2022-11-13T01:02:33.440Z,4.95
2022-11-13T01:05:19.966Z,5.57
2022-11-13T01:08:06.799Z,4.70
2022-11-13T01:10:53.959Z,4.18
2022-11-13T01:13:41.510Z,4.82
2022-11-13T01:16:28.971Z,5.07
2022-11-13T01:19:15.644Z,4.90
2022-11-13T01:22:02.126Z,4.78
2022-11-13T01:24:48.896Z,5.20
2022-11-13T01:27:37.504Z,4.63
2022-11-13T01:30:24.335Z,4.82
2022-11-13T01:33:10.953Z,4.03
2022-11-13T01:36:02.300Z,3.78
2022-11-13T01:38:49.066Z,4.43
2022-11-13T01:41:35.602Z,3.88
2022-11-13T01:44:22.993Z,3.85
2022-11-13T01:47:09.585Z,4.03
2022-11-13T01:49:57.840Z,4.15
2022-11-13T01:52:44.656Z,3.45
2022-11-13T01:55:31.358Z,3.95
2022-11-13T01:58:17.637Z,3.80
2022-11-13T02:01:04.595Z,3.67
2022-11-13T02:03:51.049Z,3.90
2022-11-13T02:06:42.229Z,3.65
2022-11-13T02:09:31.751Z,3.58
2022-11-13T02:12:22.652Z,4.25
2022-11-13T02:15:09.627Z,4.30
2022-11-13T02:17:58.012Z,3.88
2022-11-13T02:20:51.857Z,4.05
2022-11-13T02:23:49.851Z,4.97
2022-11-13T02:26:38.389Z,6.13
2022-11-13T02:29:24.969Z,5.45
2022-11-13T02:32:11.185Z,4.80
2022-11-13T02:34:58.022Z,5.53
2022-11-13T02:37:44.729Z,4.10
2022-11-13T02:40:32.368Z,5.03
2022-11-13T02:43:18.700Z,4.53
2022-11-13T02:46:05.180Z,4.40
2022-11-13T02:48:51.784Z,4.57
2022-11-13T02:51:37.926Z,4.47
2022-11-13T02:54:24.472Z,4.43
2022-11-13T02:57:11.048Z,4.20
2022-11-13T02:59:57.323Z,4.05
2022-11-13T03:02:44.030Z,4.07
2022-11-13T03:05:30.072Z,3.65
2022-11-13T03:08:17.369Z,3.28
2022-11-13T03:11:09.276Z,3.78
2022-11-13T03:13:55.845Z,3.67
2022-11-13T03:16:42.306Z,3.63
2022-11-13T03:19:28.631Z,3.53
2022-11-13T03:22:15.391Z,3.55
2022-11-13T03:25:04.852Z,3.92
2022-11-13T03:27:53.912Z,3.75
2022-11-13T03:30:40.205Z,3.63
2022-11-13T03:33:26.863Z,3.95
2022-11-13T03:36:12.969Z,3.50
2022-11-13T03:39:00.342Z,3.13
2022-11-13T03:41:46.575Z,3.55
2022-11-13T03:44:32.687Z,3.20
2022-11-13T03:47:19.487Z,3.33
2022-11-13T03:50:06.558Z,3.53
2022-11-13T03:52:53.814Z,3.75
2022-11-13T03:55:40.544Z,3.47
2022-11-13T03:58:27.607Z,3.45
2022-11-13T04:01:14.602Z,3.60
2022-11-13T04:04:01.076Z,3.03
2022-11-13T04:06:47.337Z,3.35
2022-11-13T04:09:33.626Z,3.53
2022-11-13T04:12:20.118Z,3.67
2022-11-13T04:15:07.269Z,2.97
2022-11-13T04:17:53.867Z,3.13
2022-11-13T04:20:40.075Z,3.30
2022-11-13T04:23:26.300Z,3.10
2022-11-13T04:26:12.703Z,3.13
2022-11-13T04:28:59.596Z,3.50
2022-11-13T04:31:46.296Z,3.10
2022-11-13T04:34:32.737Z,3.08
2022-11-13T04:37:18.932Z,2.80
2022-11-13T04:40:06.477Z,2.75
2022-11-13T04:42:52.957Z,3.38
2022-11-13T04:45:39.502Z,3.33
2022-11-13T04:48:26.366Z,2.75
2022-11-13T04:51:13.515Z,3.20
2022-11-13T04:54:00.066Z,3.28
2022-11-13T04:56:46.320Z,3.28
2022-11-13T04:59:32.988Z,3.15
2022-11-13T05:02:19.726Z,3.42
2022-11-13T05:05:06.617Z,3.35
2022-11-13T05:07:53.826Z,3.30
2022-11-13T05:10:40.331Z,3.40
2022-11-13T05:13:27.515Z,3.00
2022-11-13T05:16:14.742Z,3.20
2022-11-13T05:19:01.107Z,2.65
2022-11-13T05:21:47.444Z,3.10
2022-11-13T05:24:34.014Z,3.22
2022-11-13T05:27:20.175Z,3.05
2022-11-13T05:30:07.599Z,2.78
2022-11-13T05:32:53.893Z,3.33
2022-11-13T05:35:40.301Z,2.75
2022-11-13T05:38:27.312Z,3.00
2022-11-13T05:41:19.557Z,3.00
2022-11-13T05:44:05.934Z,3.00
2022-11-13T05:46:52.547Z,2.90
2022-11-13T05:49:39.188Z,3.20
2022-11-13T05:52:25.556Z,2.67
2022-11-13T05:55:11.855Z,3.10
2022-11-13T05:57:59.866Z,2.75
2022-11-13T06:00:46.194Z,2.78
2022-11-13T06:03:33.165Z,2.67
2022-11-13T06:06:21.574Z,2.90
2022-11-13T06:09:08.455Z,3.70
2022-11-13T06:11:55.105Z,3.00
2022-11-13T06:14:41.871Z,2.53
2022-11-13T06:17:28.314Z,2.72
2022-11-13T06:20:15.221Z,2.55
2022-11-13T06:23:01.897Z,2.70
2022-11-13T06:25:48.221Z,2.40
2022-11-13T06:28:35.234Z,2.88
2022-11-13T06:31:27.134Z,2.90
2022-11-13T06:34:13.549Z,3.03
2022-11-13T06:37:01.762Z,2.63
2022-11-13T06:39:48.277Z,3.20
2022-11-13T06:42:34.944Z,2.78
2022-11-13T06:45:21.335Z,2.53
2022-11-13T06:48:07.839Z,2.72
2022-11-13T06:50:54.426Z,2.90
2022-11-13T06:53:40.807Z,3.13
2022-11-13T06:56:27.324Z,3.15
2022-11-13T06:59:13.811Z,2.42
2022-11-13T07:02:00.389Z,3.00
2022-11-13T07:04:46.627Z,2.92
2022-11-13T07:07:33.004Z,2.70
2022-11-13T07:10:19.778Z,2.72
2022-11-13T07:13:06.172Z,3.05
2022-11-13T07:15:52.740Z,2.78
2022-11-13T07:18:39.405Z,2.78
2022-11-13T07:21:25.908Z,2.60
2022-11-13T07:24:16.970Z,2.78
2022-11-13T07:27:03.655Z,2.88
2022-11-13T07:29:49.975Z,2.97
2022-11-13T07:32:36.429Z,2.50
2022-11-13T07:35:23.142Z,2.90
2022-11-13T07:38:09.805Z,2.60
2022-11-13T07:40:57.645Z,2.58
2022-11-13T07:43:44.002Z,2.33
2022-11-13T07:46:30.685Z,2.72
2022-11-13T07:49:17.284Z,2.53
2022-11-13T07:52:03.790Z,2.28
2022-11-13T07:54:50.168Z,2.97
2022-11-13T07:57:36.682Z,2.70
2022-11-13T08:00:23.452Z,2.58
2022-11-13T08:03:14.777Z,2.55
2022-11-13T08:06:05.999Z,2.50
2022-11-13T08:08:52.230Z,2.53
2022-11-13T08:11:38.947Z,2.42
2022-11-13T08:14:25.377Z,2.78
2022-11-13T08:17:11.621Z,2.53
2022-11-13T08:19:58.079Z,2.80
2022-11-13T08:22:44.301Z,2.85
2022-11-13T08:25:32.049Z,2.47
2022-11-13T08:28:18.392Z,2.67
2022-11-13T08:31:05.326Z,2.35
2022-11-13T08:33:51.824Z,2.35
2022-11-13T08:36:38.450Z,2.63
2022-11-13T08:39:24.963Z,2.60
2022-11-13T08:42:11.600Z,2.35
2022-11-13T08:44:58.392Z,2.50
2022-11-13T08:47:44.589Z,2.58
2022-11-13T08:50:32.410Z,2.45
2022-11-13T08:53:18.991Z,2.40
2022-11-13T08:56:05.456Z,2.50
2022-11-13T08:58:52.142Z,2.70
2022-11-13T09:01:38.435Z,3.17
2022-11-13T09:04:26.069Z,3.20
2022-11-13T09:07:12.784Z,3.00
2022-11-13T09:09:59.361Z,3.15
2022-11-13T09:12:46.207Z,3.50
2022-11-13T09:15:33.086Z,3.40
2022-11-13T09:18:19.684Z,4.40
2022-11-13T09:21:06.102Z,3.63
2022-11-13T09:23:52.595Z,3.83
2022-11-13T09:26:39.207Z,4.03
2022-11-13T09:29:27.424Z,3.53
2022-11-13T09:32:13.861Z,3.92
2022-11-13T09:35:02.459Z,4.10
2022-11-13T09:37:53.108Z,4.03
2022-11-13T09:40:44.519Z,3.67
2022-11-13T09:43:59.835Z,3.65
2022-11-13T09:47:09.488Z,3.28
2022-11-13T09:50:22.578Z,3.42
2022-11-13T09:53:12.190Z,3.60
2022-11-13T09:56:13.617Z,3.47
2022-11-13T09:59:16.952Z,3.65
2022-11-13T10:02:22.007Z,3.40
2022-11-13T10:05:34.925Z,3.87
2022-11-13T10:08:26.148Z,3.60
2022-11-13T10:11:18.845Z,4.10
2022-11-13T10:14:27.077Z,4.60
2022-11-13T10:17:21.797Z,3.83
2022-11-13T10:20:40.480Z,4.00
2022-11-13T10:23:32.757Z,4.50
2022-11-13T10:26:21.736Z,3.85
2022-11-13T10:29:15.938Z,3.65
2022-11-13T10:32:27.081Z,3.90
2022-11-13T10:35:19.855Z,3.60
2022-11-13T10:38:40.002Z,3.53
2022-11-13T10:41:26.126Z,3.78
2022-11-13T10:44:29.524Z,4.40
2022-11-13T10:47:42.540Z,4.22
2022-11-13T10:50:31.294Z,3.55
2022-11-13T10:53:19.155Z,3.85
2022-11-13T10:56:21.895Z,4.25
2022-11-13T10:59:19.412Z,3.97
2022-11-13T11:02:22.090Z,3.65
2022-11-13T11:05:21.904Z,4.13
2022-11-13T11:08:10.636Z,4.78
2022-11-13T11:11:18.143Z,4.35
2022-11-13T11:14:34.522Z,4.35
2022-11-13T11:17:27.706Z,4.03
2022-11-13T11:20:47.248Z,4.63
2022-11-13T11:24:03.618Z,3.80
2022-11-13T11:27:10.505Z,5.05
2022-11-13T11:30:18.195Z,3.80
2022-11-13T11:33:13.530Z,4.63
2022-11-13T11:39:17.205Z,4.63
2022-11-13T11:42:41.144Z,5.63
2022-11-13T11:45:31.381Z,5.60
2022-11-13T11:48:20.730Z,5.00
2022-11-13T11:51:26.135Z,4.82
2022-11-13T11:54:19.803Z,5.07
2022-11-13T11:57:56.117Z,5.22
2022-11-13T12:00:52.467Z,5.47
2022-11-13T12:03:55.361Z,5.30
2022-11-13T12:07:03.234Z,4.93
2022-11-13T12:10:26.074Z,4.35
2022-11-13T12:13:23.184Z,5.38
2022-11-13T12:16:23.658Z,5.85
2022-11-13T12:19:30.807Z,6.20
2022-11-13T12:22:43.989Z,6.20
2022-11-13T12:25:42.379Z,5.75
2022-11-13T12:28:40.789Z,5.70
2022-11-13T12:31:49.043Z,6.30
2022-11-13T12:34:47.538Z,5.97
2022-11-13T12:37:57.840Z,6.35
2022-11-13T12:41:02.482Z,6.68
2022-11-13T12:44:14.140Z,6.50
2022-11-13T12:47:02.483Z,6.50
2022-11-13T12:50:00.284Z,7.05
2022-11-13T12:52:57.298Z,6.88
2022-11-13T12:55:43.706Z,6.70
2022-11-13T12:58:32.596Z,7.00
2022-11-13T13:01:21.301Z,6.93
2022-11-13T13:04:42.212Z,8.10
2022-11-13T13:08:05.562Z,12.02
2022-11-13T13:11:19.956Z,15.02
2022-11-13T13:14:18.445Z,20.15
2022-11-13T13:17:15.375Z,19.45
2022-11-13T13:20:07.206Z,25.58
2022-11-13T13:23:04.836Z,23.45
2022-11-13T13:26:03.881Z,27.20
2022-11-13T13:28:55.844Z,30.05
2022-11-13T13:32:02.267Z,31.17
2022-11-13T13:35:06.764Z,42.30
2022-11-13T13:38:37.304Z,69.68
2022-11-13T13:42:19.057Z,72.25
2022-11-13T13:45:36.482Z,72.38
2022-11-13T13:48:25.447Z,68.03
2022-11-13T13:51:21.739Z,69.45
2022-11-13T13:54:09.881Z,64.85
2022-11-13T13:56:57.830Z,63.53
2022-11-13T13:59:45.668Z,62.13
2022-11-13T14:02:32.097Z,62.42
2022-11-13T14:05:32.403Z,61.47
2022-11-13T14:08:20.860Z,57.42
2022-11-13T14:11:22.290Z,55.03
2022-11-13T14:14:22.499Z,53.10
2022-11-13T14:17:11.011Z,52.85
2022-11-13T14:20:03.574Z,50.25
2022-11-13T14:22:55.365Z,47.22
2022-11-13T14:25:43.392Z,47.38
2022-11-13T14:28:56.909Z,42.92
2022-11-13T14:31:43.200Z,41.67
2022-11-13T14:34:31.119Z,40.47
2022-11-13T14:37:27.080Z,39.60
2022-11-13T14:40:35.875Z,37.83
2022-11-13T14:43:29.831Z,35.47
2022-11-13T14:46:45.584Z,35.08
2022-11-13T14:49:34.826Z,36.03
2022-11-13T14:52:28.734Z,34.15
2022-11-13T14:55:27.424Z,31.50
2022-11-13T14:58:15.316Z,28.60
2022-11-13T15:01:17.712Z,27.90
2022-11-13T15:04:04.574Z,30.88
2022-11-13T15:06:56.073Z,26.70
2022-11-13T15:09:42.898Z,27.30
2022-11-13T15:12:29.346Z,26.15
2022-11-13T15:15:19.375Z,24.65
2022-11-13T15:18:06.781Z,22.70
2022-11-13T15:20:53.073Z,22.92
2022-11-13T15:23:39.207Z,24.10
2022-11-13T15:26:25.960Z,24.35
2022-11-13T15:29:12.530Z,22.63
2022-11-13T15:31:59.252Z,20.00
2022-11-13T15:34:45.327Z,21.00
2022-11-13T15:37:31.632Z,22.27
2022-11-13T15:40:18.376Z,19.17
2022-11-13T15:43:06.509Z,17.85
2022-11-13T15:45:52.899Z,19.90
2022-11-13T15:48:39.464Z,18.85
2022-11-13T15:51:41.548Z,17.90
2022-11-13T15:54:32.077Z,18.42
2022-11-13T15:57:24.034Z,17.02
2022-11-13T16:00:25.362Z,17.77
2022-11-13T16:03:12.659Z,17.15
2022-11-13T16:06:01.831Z,16.73
2022-11-13T16:08:48.534Z,16.67
2022-11-13T16:11:35.797Z,15.90
2022-11-13T16:14:25.087Z,16.23
2022-11-13T16:17:20.437Z,15.70
2022-11-13T16:20:10.479Z,14.65
2022-11-13T16:22:57.110Z,15.07
2022-11-13T16:25:45.961Z,14.35
2022-11-13T16:28:41.941Z,14.27
2022-11-13T16:31:38.859Z,14.45
2022-11-13T16:34:25.450Z,14.45
2022-11-13T16:37:21.421Z,14.05
2022-11-13T16:40:23.723Z,13.52
2022-11-13T16:43:10.968Z,14.25
2022-11-13T16:46:00.596Z,13.50
2022-11-13T16:48:48.141Z,13.48
2022-11-13T16:51:34.468Z,14.00
2022-11-13T16:54:21.040Z,14.32
2022-11-13T16:57:09.493Z,13.82
2022-11-13T16:59:55.840Z,12.43
2022-11-13T17:02:42.470Z,12.35
2022-11-13T17:05:28.877Z,13.90
2022-11-13T17:08:15.306Z,12.52
2022-11-13T17:11:01.676Z,12.02
2022-11-13T17:13:55.241Z,12.27
2022-11-13T17:16:41.814Z,12.02
2022-11-13T17:19:28.488Z,11.20
2022-11-13T17:22:17.175Z,11.32
2022-11-13T17:25:03.739Z,11.95
2022-11-13T17:27:50.084Z,10.95
2022-11-13T17:30:36.645Z,11.90
2022-11-13T17:33:22.982Z,10.55
2022-11-13T17:36:10.467Z,10.88
2022-11-13T17:38:56.778Z,12.05
2022-11-13T17:41:43.178Z,11.60
2022-11-13T17:44:29.873Z,13.05
2022-11-13T17:47:16.202Z,11.05
2022-11-13T17:50:07.297Z,10.63
2022-11-13T17:52:54.007Z,12.15
2022-11-13T17:55:40.642Z,11.98
2022-11-13T17:58:27.702Z,12.55
2022-11-13T18:01:22.297Z,12.45
2022-11-13T18:04:08.551Z,11.30
2022-11-13T18:06:55.026Z,12.02
2022-11-13T18:09:42.004Z,16.27
2022-11-13T18:12:28.970Z,19.17
2022-11-13T18:15:15.700Z,22.55
2022-11-13T18:18:02.299Z,21.17
2022-11-13T18:20:48.460Z,21.83
2022-11-13T18:23:35.000Z,20.45
2022-11-13T18:26:21.425Z,23.60
2022-11-13T18:29:08.158Z,23.83
2022-11-13T18:31:54.714Z,23.70
2022-11-13T18:34:41.330Z,21.50
2022-11-13T18:37:27.685Z,22.58
2022-11-13T18:40:13.960Z,23.40
2022-11-13T18:43:00.941Z,21.25
2022-11-13T18:45:57.259Z,19.92
2022-11-13T18:48:44.680Z,19.60
2022-11-13T18:51:35.716Z,20.70
2022-11-13T18:54:22.103Z,18.58
2022-11-13T18:57:08.323Z,19.50
2022-11-13T18:59:55.036Z,18.42
2022-11-13T19:02:41.869Z,18.27
2022-11-13T19:05:28.150Z,16.55
2022-11-13T19:08:14.899Z,18.42
2022-11-13T19:11:06.009Z,16.77
2022-11-13T19:13:52.583Z,17.98
2022-11-13T19:16:39.960Z,17.30
2022-11-13T19:19:26.465Z,15.45
2022-11-13T19:22:12.876Z,15.77
2022-11-13T19:24:59.305Z,15.80
2022-11-13T19:27:45.884Z,15.43
2022-11-13T19:30:32.053Z,16.30
2022-11-13T19:33:18.791Z,15.77
2022-11-13T19:36:13.582Z,16.35
2022-11-13T19:39:00.336Z,14.63
2022-11-13T19:41:47.529Z,13.75
2022-11-13T19:44:34.890Z,14.25
2022-11-13T19:47:21.224Z,13.13
2022-11-13T19:50:08.140Z,15.00
2022-11-13T19:52:54.530Z,13.65
2022-11-13T19:55:41.158Z,13.75
2022-11-13T19:58:29.590Z,13.13
2022-11-13T20:01:21.986Z,14.80
2022-11-13T20:04:09.546Z,13.25
2022-11-13T20:06:56.162Z,12.48
2022-11-13T20:09:42.598Z,14.15
2022-11-13T20:12:29.991Z,12.00
2022-11-13T20:15:16.095Z,11.35
2022-11-13T20:18:02.871Z,12.95
2022-11-13T20:20:54.396Z,12.73
2022-11-13T20:23:41.463Z,13.95
2022-11-13T20:26:28.420Z,12.45
2022-11-13T20:29:15.043Z,11.77
2022-11-13T20:32:02.035Z,13.13
2022-11-13T20:34:48.508Z,19.95
2022-11-13T20:37:35.364Z,16.65
2022-11-13T20:40:21.463Z,14.73
2022-11-13T20:43:07.903Z,14.43
2022-11-13T20:46:03.291Z,15.95
2022-11-13T20:51:36.719Z,15.82
2022-11-13T20:54:23.079Z,15.27
2022-11-13T20:57:09.655Z,15.07
2022-11-13T20:59:58.547Z,14.38
2022-11-13T21:02:44.842Z,16.38
2022-11-13T21:05:31.292Z,14.63
2022-11-13T21:08:17.623Z,15.23
2022-11-13T21:11:06.291Z,13.63
2022-11-13T21:13:55.546Z,14.70
2022-11-13T21:16:42.333Z,15.27
2022-11-13T21:19:28.871Z,14.50
2022-11-13T21:22:14.857Z,14.75
2022-11-13T21:25:01.503Z,14.13
2022-11-13T21:27:47.797Z,14.45
2022-11-13T21:30:34.589Z,12.18
2022-11-13T21:33:21.013Z,13.30
2022-11-13T21:36:13.357Z,13.00
2022-11-13T21:38:59.628Z,12.55
2022-11-13T21:41:45.767Z,12.73
2022-11-13T21:44:36.589Z,11.80
2022-11-13T21:47:23.083Z,12.77
2022-11-13T21:50:10.474Z,11.98
2022-11-13T21:52:58.278Z,11.90
2022-11-13T21:55:53.858Z,14.68
2022-11-13T21:58:41.929Z,16.23
2022-11-13T22:01:33.768Z,19.42
2022-11-13T22:04:24.548Z,19.52
2022-11-13T22:07:10.890Z,23.10
2022-11-13T22:09:57.131Z,26.05
2022-11-13T22:12:43.644Z,24.75
2022-11-13T22:15:29.970Z,26.27
2022-11-13T22:18:16.474Z,24.95
2022-11-13T22:21:07.606Z,25.83
2022-11-13T22:23:54.831Z,26.33
2022-11-13T22:26:45.781Z,27.02
2022-11-13T22:29:32.028Z,24.40
2022-11-13T22:32:18.650Z,23.77
2022-11-13T22:35:05.645Z,24.20
2022-11-13T22:37:52.484Z,24.80
2022-11-13T22:40:39.202Z,25.02
2022-11-13T22:43:25.653Z,23.77
2022-11-13T22:46:13.861Z,24.08
2022-11-13T22:49:05.020Z,24.17
2022-11-13T22:51:51.597Z,22.75
2022-11-13T22:54:37.709Z,22.52
2022-11-13T22:57:24.134Z,20.67
2022-11-13T23:00:11.909Z,20.98
2022-11-13T23:03:01.100Z,19.90
2022-11-13T23:05:47.697Z,19.83
2022-11-13T23:08:41.381Z,19.45
2022-11-13T23:11:29.416Z,19.38
2022-11-13T23:14:18.121Z,18.25
2022-11-13T23:17:04.737Z,16.70
2022-11-13T23:19:51.035Z,18.40
2022-11-13T23:22:37.560Z,16.75
2022-11-13T23:25:24.177Z,17.52
2022-11-13T23:28:11.696Z,15.65
2022-11-13T23:30:58.067Z,15.30
2022-11-13T23:33:44.891Z,14.68
2022-11-13T23:36:31.690Z,15.70
2022-11-13T23:39:18.163Z,13.70
2022-11-13T23:42:04.737Z,13.10
2022-11-13T23:44:51.205Z,13.07
2022-11-13T23:47:37.874Z,12.38
2022-11-13T23:50:24.283Z,13.00
2022-11-13T23:53:11.003Z,12.60
2022-11-13T23:55:57.509Z,11.45
2022-11-13T23:58:44.339Z,11.93
